createdAt,value
2022-11-06T00:02:23.381Z,101007.10
2022-11-06T00:04:57.088Z,101010.56
2022-11-06T00:07:29.007Z,101004.52
2022-11-06T00:10:01.268Z,101007.95
2022-11-06T00:12:33.667Z,101003.64
2022-11-06T00:15:06.466Z,101007.95
2022-11-06T00:17:38.428Z,101007.08
2022-11-06T00:20:11.054Z,101007.09
2022-11-06T00:22:43.140Z,101004.48
2022-11-06T00:25:15.020Z,101001.89
2022-11-06T00:27:47.477Z,101000.18
2022-11-06T00:30:20.758Z,100999.31
2022-11-06T00:32:52.656Z,101003.63
2022-11-06T00:35:24.672Z,101008.81
2022-11-06T00:37:56.878Z,101005.36
2022-11-06T00:40:28.898Z,100995.02
2022-11-06T00:43:01.538Z,101003.64
2022-11-06T00:45:34.150Z,101007.95
2022-11-06T00:48:06.262Z,101005.38
2022-11-06T00:50:38.171Z,100999.33
2022-11-06T00:53:10.405Z,101001.05
2022-11-06T00:55:42.538Z,101001.94
2022-11-06T00:58:14.864Z,101003.66
2022-11-06T01:00:47.049Z,101004.53
2022-11-06T01:03:18.892Z,101008.84
2022-11-06T01:05:51.082Z,101013.16
2022-11-06T01:08:23.264Z,101003.66
2022-11-06T01:10:55.223Z,101013.14
2022-11-06T01:13:27.458Z,101012.30
2022-11-06T01:15:59.536Z,101014.03
2022-11-06T01:18:32.244Z,101015.74
2022-11-06T01:21:10.456Z,101017.49
2022-11-06T01:23:43.181Z,101023.50
2022-11-06T01:26:24.649Z,101019.19
2022-11-06T01:28:50.773Z,101021.77
2022-11-06T01:31:25.837Z,101021.77
2022-11-06T01:33:59.161Z,101021.78
2022-11-06T01:36:31.692Z,101023.53
2022-11-06T01:39:06.748Z,101022.66
2022-11-06T01:41:41.524Z,101020.94
2022-11-06T01:44:34.319Z,101014.88
2022-11-06T01:47:09.204Z,101009.69
2022-11-06T01:49:41.191Z,101009.68
2022-11-06T01:52:15.445Z,101003.64
2022-11-06T01:54:48.086Z,101006.23
2022-11-06T01:57:18.995Z,101001.09
2022-11-06T01:59:51.262Z,100995.05
2022-11-06T02:02:22.514Z,101001.95
2022-11-06T02:04:53.440Z,100989.01
2022-11-06T02:07:24.355Z,100992.47
2022-11-06T02:09:55.128Z,100988.16
2022-11-06T02:12:33.164Z,100989.86
2022-11-06T02:15:06.136Z,100990.72
2022-11-06T02:17:38.465Z,100982.08
2022-11-06T02:20:17.438Z,100983.81
2022-11-06T02:22:55.618Z,100992.45
2022-11-06T02:25:30.965Z,100989.87
2022-11-06T02:28:03.806Z,100988.12
2022-11-06T02:30:36.399Z,100989.86
2022-11-06T02:33:08.799Z,100989.85
2022-11-06T02:35:41.084Z,100982.08
2022-11-06T02:38:13.964Z,100995.04
2022-11-06T02:40:49.145Z,100994.20
2022-11-06T02:43:21.619Z,100989.00
2022-11-06T02:45:53.893Z,100981.23
2022-11-06T02:48:26.102Z,100988.13
2022-11-06T02:50:58.355Z,100987.29
2022-11-06T02:53:30.839Z,100988.98
2022-11-06T02:56:03.581Z,100987.28
2022-11-06T02:58:51.133Z,100987.28
2022-11-06T03:01:26.207Z,100981.22
2022-11-06T03:03:58.757Z,100992.46
2022-11-06T03:06:37.190Z,100976.91
2022-11-06T03:09:09.449Z,100979.50
2022-11-06T03:11:40.321Z,100984.69
2022-11-06T03:14:12.617Z,100987.27
2022-11-06T03:16:44.839Z,100987.27
2022-11-06T03:19:19.768Z,100985.55
2022-11-06T03:21:58.114Z,100979.52
2022-11-06T03:24:31.339Z,100982.09
2022-11-06T03:27:03.935Z,100980.36
2022-11-06T03:29:39.184Z,100980.38
2022-11-06T03:32:20.837Z,100986.42
2022-11-06T03:34:56.151Z,100980.36
2022-11-06T03:37:34.529Z,100981.23
2022-11-06T03:40:06.868Z,100972.59
2022-11-06T03:42:38.802Z,100974.34
2022-11-06T03:45:11.007Z,100981.23
2022-11-06T03:47:43.274Z,100976.91
2022-11-06T03:50:27.816Z,100978.65
2022-11-06T03:53:00.368Z,100977.79
2022-11-06T03:55:32.712Z,100977.80
2022-11-06T03:58:04.985Z,100976.91
2022-11-06T04:00:37.339Z,100980.36
2022-11-06T04:03:09.854Z,100981.22
2022-11-06T04:05:45.402Z,100976.05
2022-11-06T04:08:35.847Z,100978.63
2022-11-06T04:11:26.147Z,100974.33
2022-11-06T04:14:05.264Z,100976.91
2022-11-06T04:16:37.234Z,100979.49
2022-11-06T04:19:09.426Z,100976.90
2022-11-06T04:21:41.599Z,100977.75
2022-11-06T04:24:18.331Z,100974.30
2022-11-06T04:26:50.826Z,100971.72
2022-11-06T04:29:28.546Z,100980.35
2022-11-06T04:32:17.455Z,100976.88
2022-11-06T04:34:55.516Z,100982.93
2022-11-06T04:37:36.529Z,100980.33
2022-11-06T04:40:12.449Z,100978.59
2022-11-06T04:42:44.787Z,100981.19
2022-11-06T04:45:19.993Z,100981.19
2022-11-06T04:47:52.417Z,100980.31
2022-11-06T04:50:24.517Z,100984.62
2022-11-06T04:52:56.381Z,100991.53
2022-11-06T04:55:28.831Z,100985.55
2022-11-06T04:57:59.780Z,100985.51
2022-11-06T05:00:31.206Z,100992.41
2022-11-06T05:03:02.018Z,100996.73
2022-11-06T05:05:32.739Z,100989.84
2022-11-06T05:08:03.596Z,100993.28
2022-11-06T05:10:34.506Z,100996.73
2022-11-06T05:13:05.269Z,100993.25
2022-11-06T05:15:36.461Z,100997.59
2022-11-06T05:18:07.464Z,100996.72
2022-11-06T05:20:38.399Z,101007.08
2022-11-06T05:23:09.733Z,101001.89
2022-11-06T05:25:40.646Z,101002.77
2022-11-06T05:28:12.145Z,101001.89
2022-11-06T05:30:43.302Z,101002.72
2022-11-06T05:33:14.007Z,101000.14
2022-11-06T05:35:44.964Z,101006.20
2022-11-06T05:38:16.096Z,100995.01
2022-11-06T05:40:47.264Z,101000.18
2022-11-06T05:43:18.072Z,100997.60
2022-11-06T05:45:48.940Z,100993.27
2022-11-06T05:48:19.967Z,100990.66
2022-11-06T05:50:50.775Z,100994.99
2022-11-06T05:53:21.631Z,100983.78
2022-11-06T05:55:52.641Z,100982.06
2022-11-06T05:58:23.631Z,100981.21
2022-11-06T06:00:57.557Z,100976.04
2022-11-06T06:03:28.630Z,100982.94
2022-11-06T06:05:59.751Z,100972.61
2022-11-06T06:08:30.543Z,100975.19
2022-11-06T06:11:01.339Z,100978.64
2022-11-06T06:13:32.205Z,100973.47
2022-11-06T06:16:03.142Z,100961.36
2022-11-06T06:18:34.100Z,100960.52
2022-11-06T06:21:05.072Z,100959.66
2022-11-06T06:23:35.892Z,100959.64
2022-11-06T06:26:07.035Z,100956.19
2022-11-06T06:28:37.800Z,100962.24
2022-11-06T06:31:09.968Z,100957.03
2022-11-06T06:33:40.846Z,100963.06
2022-11-06T06:36:11.776Z,100963.95
2022-11-06T06:38:42.704Z,100961.33
2022-11-06T06:41:13.621Z,100950.94
2022-11-06T06:43:44.790Z,100957.88
2022-11-06T06:46:16.069Z,100963.03
2022-11-06T06:48:47.146Z,100956.97
2022-11-06T06:51:23.563Z,100965.59
2022-11-06T06:53:50.197Z,100956.93
2022-11-06T06:56:21.075Z,100966.46
2022-11-06T06:58:53.410Z,100962.12
2022-11-06T07:01:24.551Z,100964.70
2022-11-06T07:03:59.890Z,100960.40
2022-11-06T07:06:27.861Z,100967.30
2022-11-06T07:08:59.074Z,100969.89
2022-11-06T07:11:29.838Z,100976.80
2022-11-06T07:14:01.249Z,100978.55
2022-11-06T07:16:32.673Z,100975.95
2022-11-06T07:19:03.780Z,100972.52
2022-11-06T07:21:34.533Z,100975.95
2022-11-06T07:24:05.398Z,100973.36
2022-11-06T07:26:36.430Z,100969.05
2022-11-06T07:29:07.285Z,100973.36
2022-11-06T07:31:38.191Z,100975.95
2022-11-06T07:34:09.253Z,100974.20
2022-11-06T07:36:40.151Z,100974.20
2022-11-06T07:39:11.186Z,100966.42
2022-11-06T07:41:41.922Z,100972.45
2022-11-06T07:44:12.798Z,100969.86
2022-11-06T07:46:43.729Z,100959.48
2022-11-06T07:49:16.205Z,100959.52
2022-11-06T07:51:47.282Z,100957.77
2022-11-06T07:54:18.467Z,100955.17
2022-11-06T07:56:49.429Z,100956.02
2022-11-06T07:59:20.290Z,100957.77
2022-11-06T08:01:51.440Z,100953.42
2022-11-06T08:04:23.228Z,100956.85
2022-11-06T08:06:54.103Z,100945.64
2022-11-06T08:09:28.051Z,100951.70
2022-11-06T08:11:58.966Z,100958.61
2022-11-06T08:14:30.073Z,100956.85
2022-11-06T08:17:01.115Z,100956.01
2022-11-06T08:19:32.045Z,100959.44
2022-11-06T08:22:03.861Z,100961.16
2022-11-06T08:24:35.055Z,100961.98
2022-11-06T08:27:06.148Z,100960.23
2022-11-06T08:29:41.305Z,100958.50
2022-11-06T08:32:09.967Z,100961.09
2022-11-06T08:34:42.377Z,100962.81
2022-11-06T08:37:13.465Z,100963.69
2022-11-06T08:39:44.826Z,100957.58
2022-11-06T08:42:16.411Z,100958.45
2022-11-06T08:44:47.234Z,100961.06
2022-11-06T08:47:18.133Z,100958.45
2022-11-06T08:49:48.908Z,100958.45
2022-11-06T08:52:19.755Z,100955.85
2022-11-06T08:54:50.702Z,100950.66
2022-11-06T08:57:21.679Z,100946.30
2022-11-06T08:59:52.557Z,100944.52
2022-11-06T09:02:23.455Z,100947.95
2022-11-06T09:04:54.288Z,100939.27
2022-11-06T09:07:25.129Z,100941.84
2022-11-06T09:09:56.125Z,100940.97
2022-11-06T09:12:26.869Z,100935.77
2022-11-06T09:14:57.646Z,100934.88
2022-11-06T09:17:28.743Z,100933.16
2022-11-06T09:19:59.459Z,100934.01
2022-11-06T09:22:30.593Z,100928.79
2022-11-06T09:25:04.355Z,100927.89
2022-11-06T09:27:34.727Z,100926.14
2022-11-06T09:30:05.618Z,100933.94
2022-11-06T09:32:36.484Z,100924.41
2022-11-06T09:35:07.618Z,100925.31
2022-11-06T09:37:38.474Z,100911.42
2022-11-06T09:40:11.036Z,100911.42
2022-11-06T09:42:43.245Z,100913.14
2022-11-06T09:45:15.832Z,100910.55
2022-11-06T09:47:48.145Z,100907.05
2022-11-06T09:50:20.605Z,100900.16
2022-11-06T09:52:53.022Z,100899.32
2022-11-06T09:55:31.739Z,100902.77
2022-11-06T09:58:04.165Z,100902.73
2022-11-06T10:00:35.468Z,100890.55
2022-11-06T10:03:10.773Z,100885.28
2022-11-06T10:05:42.221Z,100889.53
2022-11-06T10:08:17.240Z,100887.74
2022-11-06T10:10:49.499Z,100887.66
2022-11-06T10:13:33.558Z,100890.25
2022-11-06T10:16:06.448Z,100888.48
2022-11-06T10:18:38.713Z,100886.75
2022-11-06T10:21:11.089Z,100886.72
2022-11-06T10:23:46.193Z,100892.83
2022-11-06T10:26:21.199Z,100890.23
2022-11-06T10:28:53.669Z,100890.27
2022-11-06T10:31:29.119Z,100891.16
2022-11-06T10:34:01.270Z,100886.88
2022-11-06T10:36:36.629Z,100886.07
2022-11-06T10:39:09.158Z,100882.66
2022-11-06T10:41:41.520Z,100883.56
2022-11-06T10:44:16.781Z,100880.16
2022-11-06T10:46:49.791Z,100887.91
2022-11-06T10:49:25.133Z,100885.28
2022-11-06T10:52:00.474Z,100887.86
2022-11-06T10:54:35.796Z,100887.05
2022-11-06T10:57:14.207Z,100888.68
2022-11-06T10:59:44.945Z,100893.94
2022-11-06T11:02:23.203Z,100885.30
2022-11-06T11:04:57.923Z,100887.86
2022-11-06T11:07:28.279Z,100883.48
2022-11-06T11:09:59.092Z,100888.67
2022-11-06T11:12:33.050Z,100880.05
2022-11-06T11:15:11.995Z,100877.45
2022-11-06T11:17:43.447Z,100873.15
2022-11-06T11:20:18.896Z,100867.09
2022-11-06T11:22:51.654Z,100866.19
2022-11-06T11:25:26.245Z,100859.26
2022-11-06T11:27:59.710Z,100865.30
2022-11-06T11:30:32.675Z,100854.08
2022-11-06T11:33:06.493Z,100854.19
2022-11-06T11:35:38.826Z,100852.51
2022-11-06T11:38:14.784Z,100855.09
2022-11-06T11:40:45.882Z,100855.11
2022-11-06T11:43:24.511Z,100854.33
2022-11-06T11:46:06.076Z,100859.61
2022-11-06T11:48:44.235Z,100846.64
2022-11-06T11:51:28.755Z,100847.53
2022-11-06T11:54:07.003Z,100852.72
2022-11-06T11:57:07.667Z,100851.78
2022-11-06T11:59:13.434Z,100848.23
2022-11-06T12:01:44.334Z,100838.79
2022-11-06T12:04:17.245Z,100839.63
2022-11-06T12:06:52.371Z,100842.23
2022-11-06T12:09:23.705Z,100834.50
2022-11-06T12:11:56.165Z,100825.83
2022-11-06T12:14:28.598Z,100837.11
2022-11-06T12:17:12.667Z,100839.72
2022-11-06T12:19:44.780Z,100828.50
2022-11-06T12:22:20.061Z,100827.63
2022-11-06T12:24:52.831Z,100834.52
2022-11-06T12:27:28.174Z,100825.11
2022-11-06T12:30:00.617Z,100824.30
2022-11-06T12:32:50.659Z,100828.69
2022-11-06T12:35:39.403Z,100824.41
2022-11-06T12:38:18.234Z,100823.52
2022-11-06T12:40:53.678Z,100815.82
2022-11-06T12:43:35.054Z,100808.09
2022-11-06T12:46:10.322Z,100812.41
2022-11-06T12:48:49.110Z,100802.92
2022-11-06T12:51:36.485Z,100808.93
2022-11-06T12:54:25.643Z,100810.70
2022-11-06T12:56:57.906Z,100810.72
2022-11-06T12:59:45.265Z,100799.51
2022-11-06T13:02:34.106Z,100801.28
2022-11-06T13:05:09.093Z,100808.19
2022-11-06T13:07:47.252Z,100810.80
2022-11-06T13:10:22.531Z,100807.34
2022-11-06T13:12:54.743Z,100820.39
2022-11-06T13:15:29.993Z,100822.98
2022-11-06T13:18:18.586Z,100821.28
2022-11-06T13:20:50.750Z,100825.62
2022-11-06T13:23:23.039Z,100827.39
2022-11-06T13:25:55.495Z,100816.20
2022-11-06T13:28:36.773Z,100814.49
2022-11-06T13:31:09.324Z,100816.20
2022-11-06T13:33:50.906Z,100813.61
2022-11-06T13:36:22.155Z,100806.71
2022-11-06T13:38:57.392Z,100804.13
2022-11-06T13:41:29.372Z,100803.29
2022-11-06T13:44:01.760Z,100806.77
2022-11-06T13:46:40.393Z,100802.45
2022-11-06T13:49:18.772Z,100802.41
2022-11-06T13:51:54.132Z,100799.86
2022-11-06T13:54:38.804Z,100804.13
2022-11-06T13:57:20.327Z,100808.48
2022-11-06T14:00:08.973Z,100801.59
2022-11-06T14:02:50.592Z,100805.88
2022-11-06T14:05:32.073Z,100805.88
2022-11-06T14:08:07.223Z,100799.86
2022-11-06T14:10:39.183Z,100801.58
2022-11-06T14:13:11.902Z,100805.05
2022-11-06T14:15:42.828Z,100797.31
2022-11-06T14:18:15.624Z,100805.05
2022-11-06T14:20:46.701Z,100806.80
2022-11-06T14:23:34.157Z,100794.73
2022-11-06T14:26:05.636Z,100809.39
2022-11-06T14:28:38.092Z,100797.31
2022-11-06T14:31:13.160Z,100798.19
2022-11-06T14:33:47.840Z,100797.36
2022-11-06T14:36:29.446Z,100790.42
2022-11-06T14:39:01.588Z,100793.85
2022-11-06T14:41:38.644Z,100795.56
2022-11-06T14:44:25.836Z,100786.92
2022-11-06T14:46:58.278Z,100782.56
2022-11-06T14:49:44.049Z,100779.97
2022-11-06T14:52:16.121Z,100781.73
2022-11-06T14:55:05.564Z,100780.81
2022-11-06T14:57:49.309Z,100779.08
2022-11-06T15:00:33.791Z,100772.20
2022-11-06T15:03:06.682Z,100761.84
2022-11-06T15:05:42.383Z,100765.25
2022-11-06T15:08:10.572Z,100759.23
2022-11-06T15:10:46.423Z,100759.25
2022-11-06T15:13:18.989Z,100754.06
2022-11-06T15:15:51.966Z,100754.06
2022-11-06T15:18:23.967Z,100745.45
2022-11-06T15:20:56.368Z,100744.58
2022-11-06T15:23:44.106Z,100752.34
2022-11-06T15:26:28.484Z,100745.41
2022-11-06T15:29:04.369Z,100756.66
2022-11-06T15:31:35.569Z,100748.05
2022-11-06T15:34:08.190Z,100748.88
2022-11-06T15:36:40.949Z,100753.19
2022-11-06T15:39:29.559Z,100758.37
2022-11-06T15:42:00.984Z,100748.87
2022-11-06T15:44:31.838Z,100752.30
2022-11-06T15:47:02.673Z,100747.95
2022-11-06T15:49:33.586Z,100749.70
2022-11-06T15:52:05.912Z,100741.94
2022-11-06T15:54:38.299Z,100740.22
2022-11-06T15:57:10.983Z,100735.04
2022-11-06T15:59:42.084Z,100728.09
2022-11-06T16:02:20.765Z,100730.69
2022-11-06T16:04:52.768Z,100718.61
2022-11-06T16:07:24.100Z,100721.20
2022-11-06T16:09:55.223Z,100717.78
2022-11-06T16:12:27.427Z,100721.20
2022-11-06T16:14:58.420Z,100724.67
2022-11-06T16:17:29.537Z,100720.33
2022-11-06T16:20:01.296Z,100716.91
2022-11-06T16:22:34.779Z,100710.02
2022-11-06T16:25:07.247Z,100716.95
2022-11-06T16:27:41.355Z,100712.61
2022-11-06T16:30:13.713Z,100714.33
2022-11-06T16:32:44.827Z,100710.89
2022-11-06T16:35:35.497Z,100704.84
2022-11-06T16:38:39.292Z,100700.53
2022-11-06T16:40:50.985Z,100704.83
2022-11-06T16:43:23.258Z,100712.59
2022-11-06T16:46:03.158Z,100710.84
2022-11-06T16:48:45.525Z,100706.47
2022-11-06T16:51:18.230Z,100709.13
2022-11-06T16:53:54.087Z,100710.83
2022-11-06T16:56:26.673Z,100711.66
2022-11-06T16:59:10.804Z,100712.47
2022-11-06T17:01:43.645Z,100713.36
2022-11-06T17:04:16.374Z,100705.56
2022-11-06T17:06:47.377Z,100698.69
2022-11-06T17:09:25.940Z,100702.16
2022-11-06T17:11:58.285Z,100697.81
2022-11-06T17:14:30.648Z,100692.64
2022-11-06T17:17:02.326Z,100691.80
2022-11-06T17:19:33.673Z,100688.33
2022-11-06T17:22:06.001Z,100691.79
2022-11-06T17:24:38.968Z,100689.16
2022-11-06T17:27:10.017Z,100694.34
2022-11-06T17:29:40.948Z,100685.73
2022-11-06T17:32:12.219Z,100684.02
2022-11-06T17:34:43.174Z,100693.48
2022-11-06T17:37:14.156Z,100702.09
2022-11-06T17:39:45.149Z,100695.20
2022-11-06T17:42:16.577Z,100690.84
2022-11-06T17:44:47.916Z,100687.42
2022-11-06T17:47:18.847Z,100689.14
2022-11-06T17:49:49.875Z,100689.97
2022-11-06T17:52:21.937Z,100687.38
2022-11-06T17:54:53.171Z,100685.66
2022-11-06T17:57:24.490Z,100688.30
2022-11-06T17:59:55.711Z,100686.53
2022-11-06T18:02:54.828Z,100687.36
2022-11-06T18:04:59.721Z,100683.06
2022-11-06T18:07:32.665Z,100680.45
2022-11-06T18:10:04.025Z,100676.98
2022-11-06T18:12:34.200Z,100680.47
2022-11-06T18:15:05.552Z,100679.58
2022-11-06T18:17:36.437Z,100671.80
2022-11-06T18:20:07.775Z,100674.41
2022-11-06T18:22:38.670Z,100670.05
2022-11-06T18:25:09.928Z,100675.23
2022-11-06T18:27:40.981Z,100674.39
2022-11-06T18:30:12.434Z,100677.82
2022-11-06T18:32:43.786Z,100676.98
2022-11-06T18:35:14.608Z,100682.17
2022-11-06T18:37:45.489Z,100680.39
2022-11-06T18:40:16.473Z,100673.52
2022-11-06T18:42:47.455Z,100671.73
2022-11-06T18:45:18.632Z,100672.61
2022-11-06T18:47:49.846Z,100669.12
2022-11-06T18:50:20.995Z,100664.76
2022-11-06T18:52:57.757Z,100665.64
2022-11-06T18:55:24.456Z,100665.62
2022-11-06T18:57:55.509Z,100669.91
2022-11-06T19:00:26.869Z,100671.63
2022-11-06T19:02:57.992Z,100664.74
2022-11-06T19:05:29.134Z,100662.97
2022-11-06T19:08:00.649Z,100660.37
2022-11-06T19:10:32.740Z,100656.00
2022-11-06T19:13:03.563Z,100661.19
2022-11-06T19:15:34.348Z,100658.59
2022-11-06T19:18:05.235Z,100654.27
2022-11-06T19:20:36.695Z,100654.28
2022-11-06T19:23:07.485Z,100649.09
2022-11-06T19:25:39.874Z,100647.37
2022-11-06T19:28:10.763Z,100647.31
2022-11-06T19:30:41.713Z,100647.30
2022-11-06T19:33:12.797Z,100649.01
2022-11-06T19:35:43.890Z,100639.52
2022-11-06T19:38:14.832Z,100639.50
2022-11-06T19:40:47.054Z,100642.07
2022-11-06T19:43:17.860Z,100636.81
2022-11-06T19:45:48.845Z,100626.43
2022-11-06T19:48:20.843Z,100629.02
2022-11-06T19:50:59.688Z,100632.48
2022-11-06T19:53:24.529Z,100635.91
2022-11-06T19:55:56.229Z,100629.81
2022-11-06T19:58:27.653Z,100634.13
2022-11-06T20:00:58.498Z,100628.04
2022-11-06T20:03:29.537Z,100626.30
2022-11-06T20:06:04.852Z,100621.14
2022-11-06T20:08:32.834Z,100624.62
2022-11-06T20:11:05.348Z,100622.91
2022-11-06T20:13:39.239Z,100612.53
2022-11-06T20:16:11.516Z,100618.56
2022-11-06T20:18:42.508Z,100610.71
2022-11-06T20:21:13.652Z,100607.23
2022-11-06T20:23:44.645Z,100614.99
2022-11-06T20:26:15.994Z,100611.50
2022-11-06T20:28:48.692Z,100610.63
2022-11-06T20:31:19.925Z,100610.66
2022-11-06T20:33:51.368Z,100608.02
2022-11-06T20:36:23.837Z,100607.13
2022-11-06T20:38:55.492Z,100604.55
2022-11-06T20:41:27.119Z,100600.22
2022-11-06T20:43:57.925Z,100599.33
2022-11-06T20:46:28.906Z,100603.70
2022-11-06T20:48:59.751Z,100595.92
2022-11-06T20:51:39.253Z,100601.09
2022-11-06T20:54:04.543Z,100602.78
2022-11-06T20:56:35.328Z,100599.30
2022-11-06T20:59:06.105Z,100591.53
2022-11-06T21:01:38.530Z,100589.76
2022-11-06T21:04:10.816Z,100591.50
2022-11-06T21:06:41.666Z,100588.02
2022-11-06T21:09:12.601Z,100584.56
2022-11-06T21:11:43.607Z,100587.16
2022-11-06T21:14:14.396Z,100586.25
2022-11-06T21:16:46.020Z,100581.03
2022-11-06T21:19:16.849Z,100574.11
2022-11-06T21:21:47.730Z,100582.73
2022-11-06T21:24:18.648Z,100581.83
2022-11-06T21:26:51.352Z,100580.97
2022-11-06T21:29:22.968Z,100583.56
2022-11-06T21:31:54.646Z,100584.39
2022-11-06T21:34:25.470Z,100578.33
2022-11-06T21:37:02.142Z,100579.20
2022-11-06T21:39:33.108Z,100571.42
2022-11-06T21:42:01.391Z,100569.67
2022-11-06T21:44:32.127Z,100559.23
2022-11-06T21:47:02.925Z,100554.03
2022-11-06T21:49:33.815Z,100566.19
2022-11-06T21:52:06.467Z,100561.78
2022-11-06T21:54:55.227Z,100564.41
2022-11-06T21:57:25.893Z,100557.50
2022-11-06T21:59:57.997Z,100554.00
2022-11-06T22:02:29.105Z,100549.69
2022-11-06T22:05:00.121Z,100556.59
2022-11-06T22:07:32.547Z,100547.14
2022-11-06T22:10:03.297Z,100540.25
2022-11-06T22:12:34.924Z,100549.81
2022-11-06T22:15:06.055Z,100549.86
2022-11-06T22:17:36.938Z,100554.28
2022-11-06T22:20:08.392Z,100548.29
2022-11-06T22:22:39.205Z,100550.91
2022-11-06T22:25:10.326Z,100549.27
2022-11-06T22:27:41.295Z,100551.06
2022-11-06T22:30:12.580Z,100538.09
2022-11-06T22:32:43.463Z,100550.17
2022-11-06T22:35:14.242Z,100543.27
2022-11-06T22:37:45.186Z,100537.23
2022-11-06T22:40:16.065Z,100523.45
2022-11-06T22:42:49.523Z,100539.80
2022-11-06T22:45:19.283Z,100525.14
2022-11-06T22:47:50.066Z,100529.44
2022-11-06T22:50:20.749Z,100532.98
2022-11-06T22:52:51.931Z,100524.36
2022-11-06T22:55:22.651Z,100521.72
2022-11-06T22:57:53.781Z,100522.62
2022-11-06T23:00:24.740Z,100516.58
2022-11-06T23:02:55.904Z,100522.64
2022-11-06T23:05:26.947Z,100526.14
2022-11-06T23:07:58.367Z,100532.16
2022-11-06T23:10:29.265Z,100520.09
2022-11-06T23:13:00.093Z,100531.35
2022-11-06T23:15:31.237Z,100527.05
2022-11-06T23:18:02.151Z,100529.57
2022-11-06T23:20:33.942Z,100530.47
2022-11-06T23:23:05.716Z,100531.35
2022-11-06T23:25:36.944Z,100527.94
2022-11-06T23:28:07.839Z,100533.98
2022-11-06T23:30:38.735Z,100544.34
2022-11-06T23:33:09.467Z,100539.14
2022-11-06T23:35:40.383Z,100545.22
2022-11-06T23:38:11.409Z,100540.00
2022-11-06T23:40:42.146Z,100550.38
2022-11-06T23:43:13.100Z,100540.84
2022-11-06T23:45:50.106Z,100533.96
2022-11-06T23:48:21.138Z,100535.67
2022-11-06T23:50:51.832Z,100536.55
2022-11-06T23:53:22.614Z,100533.06
2022-11-06T23:55:53.383Z,100541.73
2022-11-06T23:58:24.204Z,100537.33
